Tuscaloosa, AL (35486)

2:16 AM CDT on September 03, 2014 (GMT -0500)
Guildswood | Change Station
CLOSE
Current Station
Personal Weather Station
Location: Tuscaloosa, AL
Elevation: 203 ft
Nearby Weather Stations

Elev 203 ft 33.22 °N, 87.56 °W | Updated 38 seconds ago

Overcast
Overcast
77.8 °F
Feels Like 80 °F
N
0.0
Wind Variable Wind from East
Gusts 0.0 mph

Today
High -- | Low -- °F
--% Chance of Precip.
Yesterday
High -- | Low -- °F
Precip. -- in
6:25 AM 7:12 PM
First Quarter, 59% visible
Pressure 30.01 in
Visibility 10.0 miles
Clouds Mostly Cloudy 8500 ft
Overcast 12000 ft
Heat Index 80 °F
Dew Point 74 °F
Humidity 89%
Rainfall 0.00 in
Snow Depth Not available.
UV 0 out of 12
Pollen 9.60 out of 12
Ozone Good
PM2.5 Good
Flu Activity Not available.
METAR KTCL 030653Z AUTO 26003KT 10SM BKN085 OVC120 24/23 A3002 RMK AO2 RAE11 SLP161 P0000 T02390228 $

More Conditions Fewer Conditions

Pressure 30.01 in
Visibility 10.0 miles
Clouds Mostly Cloudy 8500 ft
Overcast 12000 ft
Heat Index 80 °F
Dew Point 74 °F
Humidity 89%
Rainfall 0.00 in
Snow Depth Not available.
UV 0 out of 12
Pollen 9.60 out of 12
Ozone Good
PM2.5 Good
Flu Activity Not available.
METAR KTCL 030653Z AUTO 26003KT 10SM BKN085 OVC120 24/23 A3002 RMK AO2 RAE11 SLP161 P0000 T02390228 $

More Conditions Fewer Conditions

10-Day Weather Forecast

Almanac

Astronomy

Sep. 03, 2014 Rise Set
Actual Time 6:25 AM CDT 7:12 PM CDT
Civil Twilight 6:00 AM CDT 7:37 PM CDT
Nautical Twilight 5:30 AM CDT 8:07 PM CDT
Astronomical Twilight 5:00 AM CDT 8:37 PM CDT
Moon 2:44 PM CDT 12:28 AM CDT
Length of Visible Light 13h 37m
Length of Day
12h 46m
Tomorrow will be 1m 58s shorter.
First Quarter, 59% of the Moon is Illuminated
Today
First Quarter
Sep 8
Full
Sep 15
Last Quarter
Sep 24
New
Oct 1
First Quarter

Today's Extremes

State Highs State Lows

Community

WunderPhotos

Upload Photos

1,749,888 photos uploaded!

Nearby

Air Quality

  Air Quality AQ Index Pollutant
Yesterday Good
PM10
Yesterday Good
OZONE
Current Good
PM2.5
Current Good
OZONE
Wednesday Moderate
PM2.5
Wednesday Good
OZONE

Snow Depth

Station Depth Elevation
No new snow has been reported.

Earthquake Activity

City Distance Mag. Time & Date
No recent earthquake activity has been reported nearby.
Minimum magnitude displayed is 2.5.

Coastal Water Temperatures

Place Temperature
No Stations Reporting

Nearby Weather Stations